createdAt,value
2018-04-11T00:00:18.922Z,977.65
2018-04-11T00:01:25.713Z,977.58
2018-04-11T00:02:32.479Z,977.61
2018-04-11T00:03:39.252Z,977.53
2018-04-11T00:04:45.992Z,977.52
2018-04-11T00:05:52.783Z,977.56
2018-04-11T00:06:59.583Z,977.50
2018-04-11T00:08:06.348Z,977.53
2018-04-11T00:09:13.200Z,977.57
2018-04-11T00:10:19.971Z,977.64
2018-04-11T00:11:26.711Z,977.64
2018-04-11T00:12:33.436Z,977.67
2018-04-11T00:13:40.144Z,977.63
2018-04-11T00:14:46.918Z,977.63
2018-04-11T00:15:53.648Z,977.71
2018-04-11T00:17:00.356Z,977.63
2018-04-11T00:18:07.187Z,977.67
2018-04-11T00:19:13.984Z,977.75
2018-04-11T00:20:20.698Z,977.74
2018-04-11T00:21:27.437Z,977.77
2018-04-11T00:22:34.175Z,977.68
2018-04-11T00:23:40.901Z,977.72
2018-04-11T00:24:47.656Z,977.69
2018-04-11T00:25:54.375Z,977.74
2018-04-11T00:27:01.134Z,977.77
2018-04-11T00:28:07.869Z,977.75
2018-04-11T00:29:14.689Z,977.80
2018-04-11T00:30:21.388Z,977.74
2018-04-11T00:31:28.082Z,977.78
2018-04-11T00:32:34.808Z,977.75
2018-04-11T00:33:41.541Z,977.77
2018-04-11T00:34:48.635Z,977.83
2018-04-11T00:35:55.515Z,977.77
2018-04-11T00:37:02.214Z,977.85
2018-04-11T00:38:08.983Z,977.97
2018-04-11T00:39:15.712Z,977.81
2018-04-11T00:40:22.507Z,977.83
2018-04-11T00:41:29.202Z,977.89
2018-04-11T00:42:35.910Z,977.87
2018-04-11T00:43:42.648Z,977.86
2018-04-11T00:44:49.632Z,977.90
2018-04-11T00:45:56.357Z,977.95
2018-04-11T00:47:03.048Z,977.92
2018-04-11T00:48:09.895Z,978.02
2018-04-11T00:49:16.620Z,977.99
2018-04-11T00:50:23.427Z,977.97
2018-04-11T00:51:30.217Z,977.96
2018-04-11T00:52:37.044Z,978.03
2018-04-11T00:53:44.199Z,978.03
2018-04-11T00:54:50.951Z,978.07
2018-04-11T00:55:57.737Z,978.10
2018-04-11T00:57:04.603Z,978.15
2018-04-11T00:58:11.379Z,978.12
2018-04-11T00:59:18.138Z,978.18
2018-04-11T01:00:24.972Z,978.14
2018-04-11T01:01:31.744Z,978.15
2018-04-11T01:02:38.545Z,978.09
2018-04-11T01:03:45.416Z,978.12
2018-04-11T01:04:52.259Z,978.08
2018-04-11T01:05:59.020Z,978.17
2018-04-11T01:07:05.814Z,978.15
2018-04-11T01:08:12.847Z,978.23
2018-04-11T01:09:19.667Z,978.26
2018-04-11T01:10:26.458Z,978.26
2018-04-11T01:11:33.220Z,978.24
2018-04-11T01:12:40.002Z,978.29
2018-04-11T01:13:46.756Z,978.40
2018-04-11T01:14:53.506Z,978.30
2018-04-11T01:16:00.275Z,978.43
2018-04-11T01:17:07.059Z,978.40
2018-04-11T01:18:13.841Z,978.36
2018-04-11T01:19:20.618Z,978.37
2018-04-11T01:20:27.454Z,978.34
2018-04-11T01:21:34.196Z,978.36
2018-04-11T01:22:40.971Z,978.34
2018-04-11T01:23:47.730Z,978.30
2018-04-11T01:24:54.544Z,978.38
2018-04-11T01:26:01.345Z,978.32
2018-04-11T01:27:08.099Z,978.31
2018-04-11T01:28:14.875Z,978.34
2018-04-11T01:29:21.751Z,978.36
2018-04-11T01:30:28.496Z,978.28
2018-04-11T01:31:35.274Z,978.32
2018-04-11T01:32:42.043Z,978.36
2018-04-11T01:33:48.827Z,978.38
2018-04-11T01:34:55.659Z,978.27
2018-04-11T01:36:02.426Z,978.37
2018-04-11T01:37:09.183Z,978.30
2018-04-11T01:38:15.938Z,978.31
2018-04-11T01:39:22.805Z,978.36
2018-04-11T01:40:29.567Z,978.24
2018-04-11T01:41:36.339Z,978.31
2018-04-11T01:42:43.096Z,978.25
2018-04-11T01:43:49.863Z,978.23
2018-04-11T01:44:56.647Z,978.19
2018-04-11T01:46:03.430Z,978.20
2018-04-11T01:47:10.283Z,978.22
2018-04-11T01:48:17.044Z,978.29
2018-04-11T01:49:23.868Z,978.13
2018-04-11T01:50:30.719Z,978.21
2018-04-11T01:51:37.474Z,978.29
2018-04-11T01:52:44.198Z,978.26
2018-04-11T01:53:50.947Z,978.24
2018-04-11T01:54:57.647Z,978.19
2018-04-11T01:56:04.423Z,978.27
2018-04-11T01:57:11.120Z,978.16
2018-04-11T01:58:17.824Z,978.18
2018-04-11T01:59:24.586Z,978.18
2018-04-11T02:00:31.395Z,978.23
2018-04-11T02:01:38.119Z,978.24
2018-04-11T02:02:44.807Z,978.31
2018-04-11T02:03:51.534Z,978.23
2018-04-11T02:04:58.283Z,978.20
2018-04-11T02:06:04.979Z,978.24
2018-04-11T02:07:11.751Z,978.16
2018-04-11T02:08:18.487Z,978.23
2018-04-11T02:09:25.207Z,978.20
2018-04-11T02:10:31.971Z,978.21
2018-04-11T02:11:38.707Z,978.16
2018-04-11T02:12:45.539Z,978.20
2018-04-11T02:13:52.284Z,978.17
2018-04-11T02:14:58.995Z,978.18
2018-04-11T02:16:05.788Z,978.22
2018-04-11T02:17:12.659Z,978.21
2018-04-11T02:18:19.383Z,978.14
2018-04-11T02:19:26.181Z,978.21
2018-04-11T02:20:32.996Z,978.25
2018-04-11T02:21:39.715Z,978.18
2018-04-11T02:22:46.436Z,978.20
2018-04-11T02:23:53.163Z,978.25
2018-04-11T02:24:59.895Z,978.23
2018-04-11T02:26:06.589Z,978.26
2018-04-11T02:27:13.372Z,978.20
2018-04-11T02:28:20.102Z,978.27
2018-04-11T02:29:26.839Z,978.23
2018-04-11T02:30:33.611Z,978.23
2018-04-11T02:31:40.438Z,978.27
2018-04-11T02:32:47.243Z,978.26
2018-04-11T02:33:54.059Z,978.23
2018-04-11T02:35:00.755Z,978.24
2018-04-11T02:36:07.529Z,978.32
2018-04-11T02:37:14.223Z,978.30
2018-04-11T02:38:20.936Z,978.29
2018-04-11T02:39:27.706Z,978.22
2018-04-11T02:40:34.428Z,978.29
2018-04-11T02:41:41.242Z,978.26
2018-04-11T02:42:47.998Z,978.26
2018-04-11T02:43:54.831Z,978.37
2018-04-11T02:45:01.555Z,978.33
2018-04-11T02:46:08.660Z,978.31
2018-04-11T02:47:15.454Z,978.34
2018-04-11T02:48:22.174Z,978.38
2018-04-11T02:49:28.943Z,978.32
2018-04-11T02:50:35.644Z,978.28
2018-04-11T02:51:42.414Z,978.26
2018-04-11T02:52:49.189Z,978.33
2018-04-11T02:53:56.028Z,978.29
2018-04-11T02:55:02.753Z,978.29
2018-04-11T02:56:09.462Z,978.32
2018-04-11T02:57:16.234Z,978.34
2018-04-11T02:58:22.946Z,978.38
2018-04-11T02:59:29.686Z,978.28
2018-04-11T03:00:36.434Z,978.37
2018-04-11T03:01:43.178Z,978.34
2018-04-11T03:02:50.189Z,978.33
2018-04-11T03:03:56.936Z,978.37
2018-04-11T03:05:03.935Z,978.31
2018-04-11T03:06:10.887Z,978.38
2018-04-11T03:07:17.598Z,978.38
2018-04-11T03:08:24.328Z,978.35
2018-04-11T03:09:31.097Z,978.27
2018-04-11T03:10:37.838Z,978.28
2018-04-11T03:11:44.583Z,978.28
2018-04-11T03:12:51.295Z,978.30
2018-04-11T03:13:58.042Z,978.30
2018-04-11T03:15:04.748Z,978.31
2018-04-11T03:16:11.547Z,978.30
2018-04-11T03:17:18.278Z,978.31
2018-04-11T03:18:24.968Z,978.22
2018-04-11T03:19:31.733Z,978.29
2018-04-11T03:20:38.439Z,978.26
2018-04-11T03:21:45.158Z,978.30
2018-04-11T03:22:51.842Z,978.26
2018-04-11T03:23:58.635Z,978.31
2018-04-11T03:25:05.401Z,978.30
2018-04-11T03:26:12.119Z,978.24
2018-04-11T03:27:18.960Z,978.27
2018-04-11T03:28:25.662Z,978.24
2018-04-11T03:29:32.707Z,978.25
2018-04-11T03:30:39.451Z,978.21
2018-04-11T03:31:46.225Z,978.21
2018-04-11T03:32:53.287Z,978.24
2018-04-11T03:34:00.059Z,978.21
2018-04-11T03:35:06.842Z,978.24
2018-04-11T03:36:13.899Z,978.24
2018-04-11T03:37:20.603Z,978.25
2018-04-11T03:38:27.360Z,978.18
2018-04-11T03:39:34.182Z,978.17
2018-04-11T03:40:40.888Z,978.10
2018-04-11T03:41:47.620Z,978.18
2018-04-11T03:42:54.655Z,978.24
2018-04-11T03:44:01.411Z,978.16
2018-04-11T03:45:08.143Z,978.22
2018-04-11T03:46:15.208Z,978.17
2018-04-11T03:47:22.018Z,978.21
2018-04-11T03:48:28.739Z,978.17
2018-04-11T03:49:35.522Z,978.13
2018-04-11T03:50:42.240Z,978.15
2018-04-11T03:51:49.225Z,978.20
2018-04-11T03:52:56.287Z,978.14
2018-04-11T03:54:03.082Z,978.11
2018-04-11T03:55:09.807Z,978.08
2018-04-11T03:56:16.611Z,978.18
2018-04-11T03:57:23.392Z,978.09
2018-04-11T03:58:30.118Z,978.09
2018-04-11T03:59:36.920Z,978.01
2018-04-11T04:00:43.675Z,978.07
2018-04-11T04:01:50.471Z,978.09
2018-04-11T04:02:57.244Z,978.13
2018-04-11T04:04:04.013Z,978.11
2018-04-11T04:05:10.887Z,978.08
2018-04-11T04:06:17.647Z,978.07
2018-04-11T04:07:24.404Z,978.08
2018-04-11T04:08:31.176Z,978.06
2018-04-11T04:09:37.971Z,978.06
2018-04-11T04:10:44.738Z,978.01
2018-04-11T04:11:51.516Z,978.12
2018-04-11T04:12:58.373Z,978.11
2018-04-11T04:14:05.157Z,978.13
2018-04-11T04:15:11.983Z,978.04
2018-04-11T04:16:18.851Z,978.12
2018-04-11T04:17:25.943Z,978.05
2018-04-11T04:18:33.699Z,978.08
2018-04-11T04:19:40.921Z,978.06
2018-04-11T04:20:47.371Z,978.00
2018-04-11T04:21:54.136Z,978.07
2018-04-11T04:23:00.920Z,978.08
2018-04-11T04:24:07.835Z,978.04
2018-04-11T04:25:14.619Z,978.11
2018-04-11T04:26:21.403Z,978.07
2018-04-11T04:27:28.233Z,978.10
2018-04-11T04:28:34.995Z,978.15
2018-04-11T04:29:41.803Z,978.14
2018-04-11T04:30:48.667Z,978.18
2018-04-11T04:31:55.423Z,978.21
2018-04-11T04:33:02.591Z,978.17
2018-04-11T04:34:08.886Z,978.21
2018-04-11T04:35:15.751Z,978.19
2018-04-11T04:36:22.594Z,978.23
2018-04-11T04:37:29.343Z,978.26
2018-04-11T04:38:36.143Z,978.25
2018-04-11T04:39:42.954Z,978.28
2018-04-11T04:40:49.724Z,978.25
2018-04-11T04:41:56.570Z,978.21
2018-04-11T04:43:03.367Z,978.20
2018-04-11T04:44:10.127Z,978.28
2018-04-11T04:45:17.026Z,978.26
2018-04-11T04:46:23.783Z,978.28
2018-04-11T04:47:30.550Z,978.31
2018-04-11T04:48:37.326Z,978.29
2018-04-11T04:49:44.386Z,978.37
2018-04-11T04:50:51.235Z,978.25
2018-04-11T04:51:58.107Z,978.32
2018-04-11T04:53:05.283Z,978.36
2018-04-11T04:54:12.179Z,978.31
2018-04-11T04:55:18.972Z,978.38
2018-04-11T04:56:25.735Z,978.34
2018-04-11T04:57:32.601Z,978.33
2018-04-11T04:58:39.374Z,978.34
2018-04-11T04:59:46.163Z,978.32
2018-04-11T05:00:52.907Z,978.35
2018-04-11T05:01:59.687Z,978.28
2018-04-11T05:03:06.454Z,978.32
2018-04-11T05:04:13.412Z,978.27
2018-04-11T05:05:20.174Z,978.34
2018-04-11T05:06:26.983Z,978.36
2018-04-11T05:07:33.783Z,978.36
2018-04-11T05:08:40.541Z,978.21
2018-04-11T05:09:47.330Z,978.31
2018-04-11T05:10:54.109Z,978.34
2018-04-11T05:12:00.966Z,978.26
2018-04-11T05:13:07.714Z,978.37
2018-04-11T05:14:14.502Z,978.30
2018-04-11T05:15:21.287Z,978.32
2018-04-11T05:16:28.103Z,978.31
2018-04-11T05:17:34.930Z,978.30
2018-04-11T05:18:41.703Z,978.28
2018-04-11T05:19:48.494Z,978.32
2018-04-11T05:20:55.271Z,978.37
2018-04-11T05:22:02.035Z,978.46
2018-04-11T05:23:08.902Z,978.37
2018-04-11T05:24:15.775Z,978.47
2018-04-11T05:25:22.702Z,978.38
2018-04-11T05:26:29.767Z,978.36
2018-04-11T05:27:36.603Z,978.39
2018-04-11T05:28:43.392Z,978.49
2018-04-11T05:29:50.274Z,978.42
2018-04-11T05:30:57.031Z,978.53
2018-04-11T05:32:03.812Z,978.59
2018-04-11T05:33:10.675Z,978.61
2018-04-11T05:34:17.447Z,978.58
2018-04-11T05:35:24.254Z,978.59
2018-04-11T05:36:31.107Z,978.56
2018-04-11T05:37:37.955Z,978.61
2018-04-11T05:38:44.687Z,978.55
2018-04-11T05:39:51.550Z,978.60
2018-04-11T05:40:58.315Z,978.59
2018-04-11T05:42:05.144Z,978.67
2018-04-11T05:43:11.969Z,978.64
2018-04-11T05:44:18.796Z,978.63
2018-04-11T05:45:25.737Z,978.62
2018-04-11T05:46:32.520Z,978.68
2018-04-11T05:47:39.297Z,978.70
2018-04-11T05:48:46.199Z,978.75
2018-04-11T05:49:52.975Z,978.77
2018-04-11T05:50:59.762Z,978.75
2018-04-11T05:52:06.489Z,978.74
2018-04-11T05:53:13.270Z,978.71
2018-04-11T05:54:19.984Z,978.65
2018-04-11T05:55:26.830Z,978.75
2018-04-11T05:56:33.543Z,978.69
2018-04-11T05:57:40.367Z,978.71
2018-04-11T05:58:47.097Z,978.78
2018-04-11T05:59:53.847Z,978.76
2018-04-11T06:01:00.600Z,978.72
2018-04-11T06:02:07.448Z,978.73
2018-04-11T06:03:14.186Z,978.74
2018-04-11T06:04:20.943Z,978.70
2018-04-11T06:05:27.682Z,978.66
2018-04-11T06:06:34.522Z,978.67
2018-04-11T06:07:41.226Z,978.59
2018-04-11T06:08:47.936Z,978.66
2018-04-11T06:09:54.666Z,978.67
2018-04-11T06:11:01.375Z,978.67
2018-04-11T06:12:08.111Z,978.70
2018-04-11T06:13:14.900Z,978.75
2018-04-11T06:14:21.603Z,978.72
2018-04-11T06:15:28.351Z,978.72
2018-04-11T06:16:35.106Z,978.72
2018-04-11T06:17:41.982Z,978.70
2018-04-11T06:18:48.708Z,978.68
2018-04-11T06:19:55.446Z,978.69
2018-04-11T06:21:02.180Z,978.70
2018-04-11T06:22:08.895Z,978.64
2018-04-11T06:23:15.611Z,978.63
2018-04-11T06:24:22.450Z,978.66
2018-04-11T06:25:29.215Z,978.73
2018-04-11T06:26:36.521Z,978.64
2018-04-11T06:27:43.327Z,978.55
2018-04-11T06:28:50.088Z,978.63
2018-04-11T06:29:57.127Z,978.61
2018-04-11T06:31:03.862Z,978.63
2018-04-11T06:32:10.963Z,978.63
2018-04-11T06:33:17.779Z,978.66
2018-04-11T06:34:24.475Z,978.68
2018-04-11T06:35:31.205Z,978.69
2018-04-11T06:36:37.947Z,978.70
2018-04-11T06:37:44.655Z,978.71
2018-04-11T06:38:51.385Z,978.69
2018-04-11T06:39:58.439Z,978.72
2018-04-11T06:41:05.135Z,978.67
2018-04-11T06:42:11.861Z,978.69
2018-04-11T06:43:18.579Z,978.70
2018-04-11T06:44:25.270Z,978.71
2018-04-11T06:45:32.093Z,978.76
2018-04-11T06:46:39.054Z,978.77
2018-04-11T06:47:45.814Z,978.71
2018-04-11T06:48:52.520Z,978.80
2018-04-11T06:49:59.264Z,978.78
2018-04-11T06:51:06.011Z,978.81
2018-04-11T06:52:12.868Z,978.84
2018-04-11T06:53:19.652Z,978.89
2018-04-11T06:54:26.420Z,978.81
2018-04-11T06:55:33.301Z,978.80
2018-04-11T06:56:40.035Z,978.79
2018-04-11T06:57:46.824Z,978.82
2018-04-11T06:58:53.636Z,978.82
2018-04-11T07:00:00.684Z,978.83
2018-04-11T07:01:07.554Z,978.81
2018-04-11T07:02:14.347Z,978.85
2018-04-11T07:03:21.193Z,978.83
2018-04-11T07:04:27.963Z,978.79
2018-04-11T07:05:34.776Z,978.81
2018-04-11T07:06:41.617Z,978.80
2018-04-11T07:07:48.380Z,978.82
2018-04-11T07:08:55.147Z,978.82
2018-04-11T07:10:01.883Z,978.82
2018-04-11T07:11:08.703Z,978.79
2018-04-11T07:12:15.479Z,978.90
2018-04-11T07:13:22.249Z,978.86
2018-04-11T07:14:29.220Z,978.87
2018-04-11T07:15:36.027Z,978.91
2018-04-11T07:16:42.924Z,978.85
2018-04-11T07:17:49.702Z,978.89
2018-04-11T07:18:56.475Z,978.82
2018-04-11T07:20:03.335Z,978.91
2018-04-11T07:21:10.129Z,978.84
2018-04-11T07:22:16.910Z,978.83
2018-04-11T07:23:23.778Z,978.86
2018-04-11T07:24:30.632Z,978.87
2018-04-11T07:25:37.448Z,978.84
2018-04-11T07:26:44.219Z,978.82
2018-04-11T07:27:50.975Z,978.81
2018-04-11T07:28:57.750Z,978.74
2018-04-11T07:30:04.501Z,978.70
2018-04-11T07:31:11.315Z,978.69
2018-04-11T07:32:18.127Z,978.73
2018-04-11T07:33:24.881Z,978.71
2018-04-11T07:34:31.716Z,978.65
2018-04-11T07:35:38.492Z,978.72
2018-04-11T07:36:45.245Z,978.76
2018-04-11T07:37:52.001Z,978.79
2018-04-11T07:38:58.787Z,978.75
2018-04-11T07:40:05.720Z,978.80
2018-04-11T07:41:12.440Z,978.76
2018-04-11T07:42:19.299Z,978.70
2018-04-11T07:43:26.130Z,978.71
2018-04-11T07:44:32.957Z,978.76
2018-04-11T07:45:39.709Z,978.70
2018-04-11T07:46:46.477Z,978.72
2018-04-11T07:47:53.247Z,978.73
2018-04-11T07:49:00.087Z,978.72
2018-04-11T07:50:06.852Z,978.72
2018-04-11T07:51:13.719Z,978.78
2018-04-11T07:52:20.546Z,978.76
2018-04-11T07:53:27.354Z,978.74
2018-04-11T07:54:34.168Z,978.70
2018-04-11T07:55:40.954Z,978.74
2018-04-11T07:56:47.691Z,978.69
2018-04-11T07:57:54.484Z,978.70
2018-04-11T07:59:01.235Z,978.74
2018-04-11T08:00:08.155Z,978.75
2018-04-11T08:01:15.071Z,978.70
2018-04-11T08:02:22.372Z,978.82
2018-04-11T08:03:28.869Z,978.81
2018-04-11T08:04:35.620Z,978.74
2018-04-11T08:05:42.452Z,978.77
2018-04-11T08:06:49.254Z,978.80
2018-04-11T08:07:56.059Z,978.72
2018-04-11T08:09:02.845Z,978.76
2018-04-11T08:10:10.076Z,978.78
2018-04-11T08:11:16.814Z,978.78
2018-04-11T08:12:23.611Z,978.77
2018-04-11T08:13:30.387Z,978.73
2018-04-11T08:14:37.159Z,978.73
2018-04-11T08:15:44.051Z,978.70
2018-04-11T08:16:50.788Z,978.80
2018-04-11T08:17:57.568Z,978.78
2018-04-11T08:19:04.359Z,978.75
2018-04-11T08:20:11.450Z,978.74
2018-04-11T08:21:18.310Z,978.76
2018-04-11T08:22:25.087Z,978.70
2018-04-11T08:23:31.899Z,978.79
2018-04-11T08:24:38.695Z,978.77
2018-04-11T08:25:45.466Z,978.73
2018-04-11T08:26:52.264Z,978.73
2018-04-11T08:27:59.134Z,978.74
2018-04-11T08:29:05.929Z,978.74
2018-04-11T08:30:12.722Z,978.74
2018-04-11T08:31:19.610Z,978.81
2018-04-11T08:32:26.343Z,978.82
2018-04-11T08:33:33.184Z,978.86
2018-04-11T08:34:39.994Z,978.87
2018-04-11T08:35:46.730Z,978.87
2018-04-11T08:36:53.510Z,978.91
2018-04-11T08:38:00.383Z,978.85
2018-04-11T08:39:07.174Z,978.80
2018-04-11T08:40:13.978Z,978.81
2018-04-11T08:41:20.859Z,978.70
2018-04-11T08:42:27.680Z,978.74
2018-04-11T08:43:34.552Z,978.78
2018-04-11T08:44:41.395Z,978.72
2018-04-11T08:45:48.178Z,978.73
2018-04-11T08:46:55.006Z,978.75
2018-04-11T08:48:01.783Z,978.76
2018-04-11T08:49:08.590Z,978.81
2018-04-11T08:50:15.647Z,978.84
2018-04-11T08:51:22.389Z,978.81
2018-04-11T08:52:29.241Z,978.84
2018-04-11T08:53:35.947Z,978.79
2018-04-11T08:54:42.710Z,978.79
2018-04-11T08:55:49.410Z,978.82
2018-04-11T08:56:56.123Z,978.84
2018-04-11T08:58:02.947Z,978.78
2018-04-11T08:59:09.635Z,978.82
2018-04-11T09:00:16.363Z,978.76
2018-04-11T09:01:23.069Z,978.81
2018-04-11T09:02:29.824Z,978.74
2018-04-11T09:03:36.773Z,978.65
2018-04-11T09:04:43.495Z,978.75
2018-04-11T09:05:50.237Z,978.68
2018-04-11T09:06:56.947Z,978.72
2018-04-11T09:08:03.723Z,978.73
2018-04-11T09:09:10.539Z,978.72
2018-04-11T09:10:17.419Z,978.68
2018-04-11T09:11:24.190Z,978.70
2018-04-11T09:12:30.924Z,978.61
2018-04-11T09:13:37.632Z,978.73
2018-04-11T09:14:44.363Z,978.72
2018-04-11T09:15:51.079Z,978.60
2018-04-11T09:16:57.895Z,978.68
2018-04-11T09:18:04.624Z,978.66
2018-04-11T09:19:11.337Z,978.63
2018-04-11T09:20:18.070Z,978.67
2018-04-11T09:21:24.805Z,978.61
2018-04-11T09:22:31.610Z,978.60
2018-04-11T09:23:38.316Z,978.60
2018-04-11T09:24:45.043Z,978.62
2018-04-11T09:25:51.822Z,978.68
2018-04-11T09:26:58.526Z,978.66
2018-04-11T09:28:05.338Z,978.68
2018-04-11T09:29:12.146Z,978.65
2018-04-11T09:30:18.883Z,978.66
2018-04-11T09:31:25.694Z,978.67
2018-04-11T09:32:32.414Z,978.70
2018-04-11T09:33:39.189Z,978.67
2018-04-11T09:34:45.908Z,978.68
2018-04-11T09:35:52.674Z,978.63
2018-04-11T09:36:59.495Z,978.69
2018-04-11T09:38:06.302Z,978.64
2018-04-11T09:39:13.027Z,978.63
2018-04-11T09:40:19.756Z,978.61
2018-04-11T09:41:26.637Z,978.59
2018-04-11T09:42:33.482Z,978.62
2018-04-11T09:43:40.207Z,978.55
2018-04-11T09:44:47.043Z,978.56
2018-04-11T09:45:53.747Z,978.55
2018-04-11T09:47:00.504Z,978.58
2018-04-11T09:48:07.229Z,978.57
2018-04-11T09:49:13.926Z,978.56
2018-04-11T09:50:20.624Z,978.58
2018-04-11T09:51:27.406Z,978.59
2018-04-11T09:52:34.178Z,978.65
2018-04-11T09:53:40.924Z,978.60
2018-04-11T09:54:47.684Z,978.62
2018-04-11T09:55:54.464Z,978.60
2018-04-11T09:57:01.253Z,978.62
2018-04-11T09:58:08.032Z,978.53
2018-04-11T09:59:14.770Z,978.54
2018-04-11T10:00:21.607Z,978.48
2018-04-11T10:01:28.360Z,978.42
2018-04-11T10:02:35.175Z,978.38
2018-04-11T10:03:41.971Z,978.41
2018-04-11T10:04:49.123Z,978.34
2018-04-11T10:05:55.879Z,978.27
2018-04-11T10:07:02.683Z,978.33
2018-04-11T10:08:09.564Z,978.28
2018-04-11T10:09:16.323Z,978.31
2018-04-11T10:10:23.084Z,978.27
2018-04-11T10:11:29.846Z,978.28
2018-04-11T10:12:36.665Z,978.27
2018-04-11T10:13:43.406Z,978.26
2018-04-11T10:14:50.199Z,978.27
2018-04-11T10:15:56.955Z,978.28
2018-04-11T10:17:03.739Z,978.27
2018-04-11T10:18:10.523Z,978.31
2018-04-11T10:19:17.294Z,978.28
2018-04-11T10:20:24.038Z,978.23
2018-04-11T10:21:30.835Z,978.26
2018-04-11T10:22:37.681Z,978.22
2018-04-11T10:23:44.506Z,978.12
2018-04-11T10:24:51.323Z,978.14
2018-04-11T10:25:58.107Z,978.17
2018-04-11T10:27:04.867Z,978.11
2018-04-11T10:28:11.747Z,978.14
2018-04-11T10:29:18.487Z,978.11
2018-04-11T10:30:25.275Z,978.14
2018-04-11T10:31:32.107Z,978.13
2018-04-11T10:32:38.912Z,978.06
2018-04-11T10:33:45.775Z,978.09
2018-04-11T10:34:52.474Z,978.08
2018-04-11T10:35:59.259Z,978.09
2018-04-11T10:37:06.011Z,978.10
2018-04-11T10:38:12.788Z,978.05
2018-04-11T10:39:19.539Z,978.01
2018-04-11T10:40:26.354Z,978.10
2018-04-11T10:41:33.121Z,978.01
2018-04-11T10:42:39.906Z,978.04
2018-04-11T10:43:46.794Z,978.01
2018-04-11T10:44:53.552Z,977.94
2018-04-11T10:46:00.355Z,977.98
2018-04-11T10:47:07.216Z,977.99
2018-04-11T10:48:14.002Z,978.04
2018-04-11T10:49:20.779Z,977.95
2018-04-11T10:50:27.607Z,977.90
2018-04-11T10:51:34.327Z,977.95
2018-04-11T10:52:41.090Z,977.88
2018-04-11T10:53:47.814Z,977.89
2018-04-11T10:54:54.647Z,977.89
2018-04-11T10:56:01.349Z,977.89
2018-04-11T10:57:08.056Z,977.92
2018-04-11T10:58:14.778Z,977.85
2018-04-11T10:59:21.511Z,977.87
2018-04-11T11:00:28.231Z,977.89
2018-04-11T11:01:35.024Z,977.85
2018-04-11T11:02:41.811Z,977.85
2018-04-11T11:03:48.571Z,977.88
2018-04-11T11:04:55.274Z,977.80
2018-04-11T11:06:02.124Z,977.76
2018-04-11T11:07:08.902Z,977.77
2018-04-11T11:08:15.783Z,977.79
2018-04-11T11:09:22.580Z,977.76
2018-04-11T11:10:29.342Z,977.76
2018-04-11T11:11:36.161Z,977.77
2018-04-11T11:12:42.998Z,977.71
2018-04-11T11:13:49.820Z,977.76
2018-04-11T11:14:56.610Z,977.78
2018-04-11T11:16:03.676Z,977.79
2018-04-11T11:17:10.601Z,977.84
2018-04-11T11:18:17.384Z,977.74
2018-04-11T11:19:24.339Z,977.73
2018-04-11T11:20:31.096Z,977.80
2018-04-11T11:21:37.928Z,977.88
2018-04-11T11:22:44.808Z,977.73
2018-04-11T11:23:51.659Z,977.82
2018-04-11T11:24:58.588Z,977.80
2018-04-11T11:26:05.374Z,977.84
2018-04-11T11:27:12.239Z,977.69
2018-04-11T11:28:19.039Z,977.74
2018-04-11T11:29:25.782Z,977.72
2018-04-11T11:30:32.569Z,977.73
2018-04-11T11:31:39.643Z,977.82
2018-04-11T11:32:46.554Z,977.76
2018-04-11T11:33:53.256Z,977.80
2018-04-11T11:35:00.019Z,977.72
2018-04-11T11:36:06.815Z,977.76
2018-04-11T11:37:13.608Z,977.78
2018-04-11T11:38:20.417Z,977.77
2018-04-11T11:39:27.539Z,977.77
2018-04-11T11:40:34.358Z,977.80
2018-04-11T11:41:41.127Z,977.78
2018-04-11T11:42:47.928Z,977.80
2018-04-11T11:43:54.683Z,977.73
2018-04-11T11:45:01.524Z,977.75
2018-04-11T11:46:08.332Z,977.69
2018-04-11T11:47:15.095Z,977.72
2018-04-11T11:48:21.955Z,977.68
2018-04-11T11:49:28.711Z,977.74
2018-04-11T11:50:35.503Z,977.59
2018-04-11T11:51:42.389Z,977.69
2018-04-11T11:52:49.159Z,977.65
2018-04-11T11:53:55.942Z,977.52
2018-04-11T11:55:02.762Z,977.52
2018-04-11T11:56:09.620Z,977.54
2018-04-11T11:57:16.423Z,977.57
2018-04-11T11:58:23.188Z,977.48
2018-04-11T11:59:29.968Z,977.53
2018-04-11T12:00:36.728Z,977.53
2018-04-11T12:01:43.471Z,977.51
2018-04-11T12:02:50.231Z,977.59
2018-04-11T12:03:57.023Z,977.57
2018-04-11T12:05:03.875Z,977.54
2018-04-11T12:06:10.696Z,977.50
2018-04-11T12:07:17.526Z,977.52
2018-04-11T12:08:24.267Z,977.47
2018-04-11T12:09:31.316Z,977.49
2018-04-11T12:10:38.094Z,977.48
2018-04-11T12:11:44.870Z,977.40
2018-04-11T12:12:51.615Z,977.43
2018-04-11T12:13:58.350Z,977.42
2018-04-11T12:15:05.085Z,977.41
2018-04-11T12:16:11.806Z,977.36
2018-04-11T12:17:18.594Z,977.41
2018-04-11T12:18:25.415Z,977.39
2018-04-11T12:19:32.154Z,977.31
2018-04-11T12:20:38.854Z,977.38
2018-04-11T12:21:45.675Z,977.25
2018-04-11T12:22:52.411Z,977.24
2018-04-11T12:23:59.728Z,977.24
2018-04-11T12:25:06.271Z,977.28
2018-04-11T12:26:12.944Z,977.19
2018-04-11T12:27:19.714Z,977.23
2018-04-11T12:28:26.499Z,977.22
2018-04-11T12:29:33.285Z,977.24
2018-04-11T12:30:40.028Z,977.25
2018-04-11T12:31:46.804Z,977.18
2018-04-11T12:32:53.591Z,977.21
2018-04-11T12:34:00.336Z,977.13
2018-04-11T12:35:07.121Z,977.23
2018-04-11T12:36:14.230Z,977.19
2018-04-11T12:37:20.977Z,977.19
2018-04-11T12:38:27.750Z,977.18
2018-04-11T12:39:34.500Z,977.21
2018-04-11T12:40:41.327Z,977.15
2018-04-11T12:41:48.151Z,977.11
2018-04-11T12:42:54.900Z,977.15
2018-04-11T12:44:01.716Z,977.11
2018-04-11T12:45:08.478Z,977.09
2018-04-11T12:46:15.251Z,977.11
2018-04-11T12:47:21.992Z,977.02
2018-04-11T12:48:28.760Z,976.98
2018-04-11T12:49:35.495Z,976.98
2018-04-11T12:50:42.400Z,976.93
2018-04-11T12:51:49.182Z,976.95
2018-04-11T12:52:55.929Z,976.91
2018-04-11T12:54:02.763Z,976.88
2018-04-11T12:55:09.594Z,976.90
2018-04-11T12:56:16.342Z,976.85
2018-04-11T12:57:23.171Z,976.92
2018-04-11T12:58:30.149Z,976.91
2018-04-11T12:59:36.970Z,976.88
2018-04-11T13:00:43.759Z,976.90
2018-04-11T13:01:50.580Z,976.84
2018-04-11T13:02:57.390Z,976.91
2018-04-11T13:04:04.162Z,976.89
2018-04-11T13:05:10.922Z,976.91
2018-04-11T13:06:17.667Z,976.87
2018-04-11T13:07:24.455Z,976.85
2018-04-11T13:08:31.311Z,976.83
2018-04-11T13:09:38.255Z,976.81
2018-04-11T13:10:45.014Z,976.87
2018-04-11T13:11:51.800Z,976.79
2018-04-11T13:12:58.666Z,976.80
2018-04-11T13:14:05.514Z,976.70
2018-04-11T13:15:12.317Z,976.72
2018-04-11T13:16:19.094Z,976.69
2018-04-11T13:17:25.815Z,976.58
2018-04-11T13:18:32.683Z,976.70
2018-04-11T13:19:39.500Z,976.60
2018-04-11T13:20:46.264Z,976.56
2018-04-11T13:21:52.946Z,976.55
2018-04-11T13:22:59.708Z,976.59
2018-04-11T13:24:06.549Z,976.48
2018-04-11T13:25:13.398Z,976.49
2018-04-11T13:26:20.158Z,976.43
2018-04-11T13:27:27.008Z,976.42
2018-04-11T13:28:33.824Z,976.47
2018-04-11T13:29:40.600Z,976.54
2018-04-11T13:30:47.442Z,976.46
2018-04-11T13:31:54.200Z,976.45
2018-04-11T13:33:01.259Z,976.38
2018-04-11T13:34:08.041Z,976.36
2018-04-11T13:35:14.967Z,976.40
2018-04-11T13:36:21.948Z,976.36
2018-04-11T13:37:28.837Z,976.37
2018-04-11T13:38:35.651Z,976.34
2018-04-11T13:39:42.427Z,976.50
2018-04-11T13:40:49.296Z,976.41
2018-04-11T13:41:56.042Z,976.32
2018-04-11T13:43:02.876Z,976.28
2018-04-11T13:44:09.723Z,976.44
2018-04-11T13:45:16.558Z,976.35
2018-04-11T13:46:23.350Z,976.37
2018-04-11T13:47:30.163Z,976.40
2018-04-11T13:48:37.091Z,976.35
2018-04-11T13:49:43.971Z,976.23
2018-04-11T13:50:50.776Z,976.26
2018-04-11T13:51:57.543Z,976.31
2018-04-11T13:53:04.639Z,976.32